createdAt,value
2018-07-21T09:42:24.969Z,5.93
2018-07-21T09:44:55.994Z,5.50
2018-07-21T09:47:33.584Z,5.10
2018-07-21T09:50:03.968Z,4.97
2018-07-21T09:52:35.151Z,4.57
2018-07-21T09:55:05.894Z,5.10
2018-07-21T09:57:36.709Z,4.83
2018-07-21T10:00:10.252Z,5.33
2018-07-21T10:02:49.269Z,4.37
2018-07-21T10:05:19.792Z,5.10
2018-07-21T10:07:55.247Z,4.20
2018-07-21T10:10:24.635Z,3.83
2018-07-21T10:12:55.554Z,4.03
2018-07-21T10:15:26.338Z,4.40
2018-07-21T10:17:56.533Z,4.00
2018-07-21T10:20:28.861Z,4.03
2018-07-21T10:22:59.898Z,4.20
2018-07-21T10:25:38.811Z,4.00
2018-07-21T10:28:21.251Z,4.40
2018-07-21T10:30:52.654Z,4.10
2018-07-21T10:33:23.550Z,4.62
2018-07-21T10:35:53.642Z,4.58
2018-07-21T10:38:25.698Z,4.33
2018-07-21T10:40:57.805Z,4.60
2018-07-21T10:43:30.157Z,4.30
2018-07-21T10:46:00.356Z,4.20
2018-07-21T10:48:30.672Z,4.60
2018-07-21T10:51:00.957Z,4.20
2018-07-21T10:53:32.873Z,4.58
2018-07-21T10:56:04.246Z,3.98
2018-07-21T10:58:36.119Z,4.35
2018-07-21T11:01:06.403Z,4.47
2018-07-21T11:03:37.420Z,4.92
2018-07-21T11:06:08.217Z,4.40
2018-07-21T11:08:43.554Z,4.25
2018-07-21T11:11:13.738Z,4.80
2018-07-21T11:13:45.848Z,4.05
2018-07-21T11:16:16.029Z,4.78
2018-07-21T11:18:47.805Z,4.70
2018-07-21T11:21:18.250Z,4.50
2018-07-21T11:23:49.087Z,4.70
2018-07-21T11:26:19.405Z,5.15
2018-07-21T11:28:49.998Z,4.40
2018-07-21T11:31:20.253Z,4.12
2018-07-21T11:33:50.057Z,4.60
2018-07-21T11:36:20.544Z,6.28
2018-07-21T11:38:52.572Z,4.37
2018-07-21T11:41:23.067Z,3.95
2018-07-21T11:43:55.674Z,4.15
2018-07-21T11:46:26.098Z,4.53
2018-07-21T11:48:57.510Z,4.53
2018-07-21T11:51:28.069Z,4.53
2018-07-21T11:53:58.872Z,4.25
2018-07-21T11:56:29.424Z,4.20
2018-07-21T11:59:00.295Z,3.95
2018-07-21T12:01:30.156Z,4.40
2018-07-21T12:04:01.510Z,4.15
2018-07-21T12:06:31.780Z,4.10
2018-07-21T12:09:03.215Z,4.05
2018-07-21T12:11:33.394Z,4.03
2018-07-21T12:14:04.162Z,4.40
2018-07-21T12:16:34.929Z,4.50
2018-07-21T12:19:07.387Z,4.12
2018-07-21T12:21:38.078Z,4.28
2018-07-21T12:24:10.199Z,4.60
2018-07-21T12:26:41.440Z,4.50
2018-07-21T12:29:13.193Z,4.08
2018-07-21T12:31:54.428Z,3.80
2018-07-21T12:34:26.231Z,4.28
2018-07-21T12:36:56.993Z,4.50
2018-07-21T12:39:28.378Z,4.00
2018-07-21T12:41:58.604Z,4.15
2018-07-21T12:44:29.402Z,3.98
2018-07-21T12:47:00.861Z,3.65
2018-07-21T12:49:38.248Z,4.35
2018-07-21T12:52:08.523Z,4.28
2018-07-21T12:54:39.238Z,4.67
2018-07-21T12:57:09.665Z,4.30
2018-07-21T12:59:39.726Z,4.30
2018-07-21T13:02:10.535Z,4.42
2018-07-21T13:04:42.276Z,4.25
2018-07-21T13:07:12.492Z,4.35
2018-07-21T13:09:42.478Z,4.90
2018-07-21T13:12:17.453Z,3.80
2018-07-21T13:14:47.957Z,4.40
2018-07-21T13:17:18.720Z,3.87
2018-07-21T13:19:49.930Z,4.28
2018-07-21T13:22:20.457Z,4.10
2018-07-21T13:24:52.005Z,4.58
2018-07-21T13:27:22.326Z,4.40
2018-07-21T13:29:52.962Z,4.50
2018-07-21T13:32:23.581Z,4.72
2018-07-21T13:35:01.847Z,4.62
2018-07-21T13:37:32.137Z,4.83
2018-07-21T13:40:12.451Z,4.50
2018-07-21T13:42:43.002Z,5.00
2018-07-21T13:45:14.634Z,5.17
2018-07-21T13:47:44.519Z,4.42
2018-07-21T13:50:18.183Z,4.50
2018-07-21T13:52:48.278Z,4.95
2018-07-21T13:55:18.832Z,4.92
2018-07-21T13:57:53.148Z,5.00
2018-07-21T14:00:28.490Z,5.15
2018-07-21T14:02:59.344Z,4.78
2018-07-21T14:05:29.838Z,5.15
2018-07-21T14:08:01.247Z,5.05
2018-07-21T14:10:32.397Z,5.10
2018-07-21T14:13:03.877Z,5.40
2018-07-21T14:15:34.866Z,5.17
2018-07-21T14:18:04.964Z,5.12
2018-07-21T14:20:35.241Z,5.22
2018-07-21T14:23:06.683Z,5.40
2018-07-21T14:25:37.585Z,5.87
2018-07-21T14:28:09.109Z,5.65
2018-07-21T14:30:49.063Z,4.97
2018-07-21T14:33:19.399Z,5.50
2018-07-21T14:35:51.369Z,5.22
2018-07-21T14:38:22.197Z,5.33
2018-07-21T14:40:52.747Z,5.17
2018-07-21T14:43:23.390Z,5.78
2018-07-21T14:45:54.311Z,5.75
2018-07-21T14:48:25.936Z,5.58
2018-07-21T14:50:59.667Z,6.33
2018-07-21T14:53:32.197Z,5.58
2018-07-21T14:56:02.591Z,5.65
2018-07-21T14:58:33.658Z,5.83
2018-07-21T15:01:04.312Z,5.50
2018-07-21T15:03:35.612Z,5.53
2018-07-21T15:06:06.316Z,5.90
2018-07-21T15:08:35.727Z,6.08
2018-07-21T15:11:06.575Z,5.62
2018-07-21T15:13:36.878Z,5.35
2018-07-21T15:16:08.887Z,5.78
2018-07-21T15:18:39.603Z,6.25
2018-07-21T15:21:09.005Z,5.60
2018-07-21T15:23:40.844Z,6.08
2018-07-21T15:26:10.985Z,5.72
2018-07-21T15:28:40.584Z,5.22
2018-07-21T15:31:10.820Z,5.50
2018-07-21T15:33:41.254Z,6.33
2018-07-21T15:36:11.872Z,5.97
2018-07-21T15:38:41.773Z,5.80
2018-07-21T15:41:13.749Z,5.35
2018-07-21T15:43:44.332Z,6.60
2018-07-21T15:46:14.726Z,6.05
2018-07-21T15:48:44.916Z,5.80
2018-07-21T15:51:16.396Z,6.45
2018-07-21T15:53:46.318Z,6.33
2018-07-21T15:56:16.533Z,5.95
2018-07-21T15:58:46.548Z,6.65
2018-07-21T16:01:16.482Z,6.55
2018-07-21T16:03:47.467Z,6.28
2018-07-21T16:06:17.691Z,6.05
2018-07-21T16:08:47.799Z,5.78
2018-07-21T16:11:18.129Z,5.95
2018-07-21T16:13:49.171Z,5.67
2018-07-21T16:16:19.144Z,6.00
2018-07-21T16:18:49.972Z,5.87
2018-07-21T16:21:20.159Z,5.92
2018-07-21T16:23:50.530Z,5.80
2018-07-21T16:26:35.614Z,5.60
2018-07-21T16:29:30.847Z,6.50
2018-07-21T16:32:27.124Z,6.33
2018-07-21T16:34:59.879Z,5.67
2018-07-21T16:37:31.141Z,5.83
2018-07-21T16:40:02.867Z,6.10
2018-07-21T16:42:32.978Z,6.00
2018-07-21T16:45:04.608Z,6.37
2018-07-21T16:47:35.499Z,5.40
2018-07-21T16:50:05.952Z,5.60
2018-07-21T16:52:37.202Z,5.65
2018-07-21T16:55:07.443Z,6.00
2018-07-21T16:57:38.497Z,5.60
2018-07-21T17:00:09.303Z,5.37
2018-07-21T17:02:38.633Z,5.95
2018-07-21T17:05:09.178Z,5.50
2018-07-21T17:07:39.428Z,5.03
2018-07-21T17:10:12.185Z,5.30
2018-07-21T17:12:54.160Z,5.17
2018-07-21T17:15:25.545Z,4.75
2018-07-21T17:17:56.156Z,5.10
2018-07-21T17:20:30.924Z,4.55
2018-07-21T17:23:05.733Z,4.62
2018-07-21T17:25:38.361Z,4.05
2018-07-21T17:28:17.872Z,4.67
2018-07-21T17:31:05.772Z,4.08
2018-07-21T17:33:37.331Z,4.53
2018-07-21T17:36:10.504Z,4.10
2018-07-21T17:38:40.933Z,3.80
2018-07-21T17:41:12.529Z,3.70
2018-07-21T17:43:42.603Z,3.58
2018-07-21T17:46:13.886Z,3.58
2018-07-21T17:48:44.198Z,3.47
2018-07-21T17:51:16.700Z,3.65
2018-07-21T17:53:49.635Z,3.22
2018-07-21T17:56:20.441Z,3.30
2018-07-21T17:58:50.872Z,3.02
2018-07-21T18:01:21.998Z,3.12
2018-07-21T18:03:52.301Z,3.30
2018-07-21T18:06:30.287Z,2.70
2018-07-21T18:09:03.883Z,2.85
2018-07-21T18:11:36.876Z,2.87
2018-07-21T18:14:06.949Z,2.80
2018-07-21T18:16:38.801Z,2.70
2018-07-21T18:19:09.556Z,2.58
2018-07-21T18:21:41.160Z,2.20
2018-07-21T18:24:11.705Z,2.37
2018-07-21T18:26:43.594Z,2.45
2018-07-21T18:29:18.545Z,3.00
2018-07-21T18:31:54.608Z,2.60
2018-07-21T18:34:25.633Z,2.60
2018-07-21T18:36:56.095Z,2.50
2018-07-21T18:39:28.204Z,2.47
2018-07-21T18:41:59.434Z,2.67
2018-07-21T18:44:29.131Z,2.55
2018-07-21T18:47:01.502Z,2.30
2018-07-21T18:49:31.789Z,2.30
2018-07-21T18:52:01.900Z,2.50
2018-07-21T18:54:32.422Z,2.72
2018-07-21T18:57:03.032Z,2.75
2018-07-21T18:59:42.238Z,2.90
2018-07-21T19:02:12.332Z,2.25
2018-07-21T19:04:41.838Z,2.53
2018-07-21T19:07:12.085Z,2.53
2018-07-21T19:09:43.808Z,2.50
2018-07-21T19:12:19.361Z,2.25
2018-07-21T19:14:49.764Z,2.67
2018-07-21T19:17:20.116Z,2.23
2018-07-21T19:20:00.139Z,2.43
2018-07-21T19:22:30.886Z,2.47
2018-07-21T19:25:05.218Z,2.50
2018-07-21T19:27:35.714Z,2.70
2018-07-21T19:30:06.020Z,2.20
2018-07-21T19:32:41.108Z,2.33
2018-07-21T19:35:11.915Z,2.23
2018-07-21T19:37:49.621Z,2.90
2018-07-21T19:40:20.856Z,2.37
2018-07-21T19:42:52.056Z,2.47
2018-07-21T19:45:22.402Z,2.33
2018-07-21T19:47:53.699Z,2.37
2018-07-21T19:50:24.389Z,2.60
2018-07-21T19:52:54.786Z,2.73
2018-07-21T19:55:25.163Z,2.10
2018-07-21T19:57:57.156Z,2.47
2018-07-21T20:00:27.451Z,2.30
2018-07-21T20:03:00.418Z,2.63
2018-07-21T20:05:33.044Z,2.80
2018-07-21T20:08:03.916Z,2.93
2018-07-21T20:10:34.004Z,2.93
2018-07-21T20:13:04.327Z,2.57
2018-07-21T20:15:34.947Z,2.90
2018-07-21T20:18:04.907Z,2.80
2018-07-21T20:20:34.972Z,2.83
2018-07-21T20:23:05.930Z,3.10
2018-07-21T20:25:40.879Z,2.13
2018-07-21T20:30:24.242Z,2.93
2018-07-21T20:32:55.106Z,2.90
2018-07-21T20:35:25.520Z,2.97
2018-07-21T20:37:56.134Z,2.57
2018-07-21T20:40:25.972Z,2.40
2018-07-21T20:42:56.676Z,2.97
2018-07-21T20:45:27.595Z,2.60
2018-07-21T20:47:59.643Z,2.17
2018-07-21T20:50:46.587Z,3.00
2018-07-21T20:53:20.564Z,2.67
2018-07-21T20:55:51.178Z,3.33
2018-07-21T20:58:23.175Z,2.63
2018-07-21T21:00:58.313Z,2.80
2018-07-21T21:03:29.308Z,2.67
2018-07-21T21:06:01.764Z,2.97
2018-07-21T21:08:32.796Z,3.13
2018-07-21T21:11:07.245Z,2.80
2018-07-21T21:13:38.142Z,2.57
2018-07-21T21:16:09.483Z,2.73
2018-07-21T21:18:41.557Z,3.07
2018-07-21T21:21:12.683Z,2.67
2018-07-21T21:23:42.391Z,2.93
2018-07-21T21:26:13.864Z,2.90
2018-07-21T21:28:44.368Z,2.77
2018-07-21T21:31:14.924Z,3.13
2018-07-21T21:33:49.054Z,3.13
2018-07-21T21:36:19.946Z,3.00
2018-07-21T21:38:52.726Z,3.33
2018-07-21T21:41:23.268Z,3.03
2018-07-21T21:43:55.489Z,2.93
2018-07-21T21:46:26.180Z,2.70
2018-07-21T21:48:57.795Z,3.20
2018-07-21T21:51:29.276Z,2.87
2018-07-21T21:54:00.567Z,2.93
2018-07-21T21:56:31.496Z,2.63
2018-07-21T21:59:03.811Z,3.20
2018-07-21T22:01:38.582Z,3.00
2018-07-21T22:04:12.200Z,3.10
2018-07-21T22:06:42.820Z,2.73
2018-07-21T22:09:14.386Z,2.90
2018-07-21T22:11:44.939Z,3.17
2018-07-21T22:14:16.462Z,2.93
2018-07-21T22:16:46.906Z,2.90
2018-07-21T22:19:18.355Z,3.07
2018-07-21T22:21:49.247Z,3.17
2018-07-21T22:24:20.634Z,3.07
2018-07-21T22:26:51.580Z,3.03
2018-07-21T22:29:26.380Z,3.17
2018-07-21T22:31:56.999Z,3.27
2018-07-21T22:34:28.151Z,3.63
2018-07-21T22:36:58.925Z,3.00
2018-07-21T22:39:29.900Z,3.27
2018-07-21T22:42:00.440Z,2.80
2018-07-21T22:44:31.443Z,3.17
2018-07-21T22:47:01.802Z,2.77
2018-07-21T22:49:33.495Z,2.93
2018-07-21T22:52:04.341Z,3.07
2018-07-21T22:57:36.239Z,2.53
2018-07-21T23:00:08.006Z,2.90
2018-07-21T23:02:38.992Z,2.80
2018-07-21T23:05:10.212Z,3.60
2018-07-21T23:07:41.024Z,2.70
2018-07-21T23:10:12.420Z,3.03
2018-07-21T23:12:43.622Z,2.87
2018-07-21T23:15:14.324Z,2.87
2018-07-21T23:17:45.547Z,3.00
2018-07-21T23:20:17.137Z,2.63
2018-07-21T23:22:47.761Z,3.10
2018-07-21T23:25:18.930Z,2.97
2018-07-21T23:27:49.075Z,2.70
2018-07-21T23:30:20.541Z,3.37
2018-07-21T23:32:50.981Z,3.13
2018-07-21T23:35:22.116Z,2.87
2018-07-21T23:37:52.590Z,2.97
2018-07-21T23:40:23.256Z,2.67
2018-07-21T23:42:53.469Z,3.10
2018-07-21T23:45:25.720Z,3.30
2018-07-21T23:47:56.237Z,3.23
2018-07-21T23:50:27.368Z,2.97
2018-07-21T23:52:58.231Z,3.10
2018-07-21T23:55:29.525Z,3.10
2018-07-21T23:58:00.313Z,2.97
